createdAt,value
2022-11-29T00:01:31.157Z,-6.09
2022-11-29T00:03:58.964Z,-6.04
2022-11-29T00:06:29.377Z,-6.18
2022-11-29T00:08:59.135Z,-6.30
2022-11-29T00:11:29.453Z,-6.09
2022-11-29T00:13:56.521Z,-6.25
2022-11-29T00:16:23.456Z,-6.08
2022-11-29T00:18:50.347Z,-6.14
2022-11-29T00:21:17.205Z,-6.52
2022-11-29T00:23:44.203Z,-6.33
2022-11-29T00:26:11.022Z,-6.41
2022-11-29T00:28:37.951Z,-6.36
2022-11-29T00:31:16.896Z,-6.40
2022-11-29T00:33:43.930Z,-6.52
2022-11-29T00:36:11.556Z,-6.57
2022-11-29T00:38:38.868Z,-6.55
2022-11-29T00:41:06.739Z,-6.72
2022-11-29T00:43:33.762Z,-6.85
2022-11-29T00:46:01.556Z,-6.70
2022-11-29T00:48:28.486Z,-6.51
2022-11-29T00:50:55.382Z,-6.55
2022-11-29T00:53:22.489Z,-6.33
2022-11-29T00:55:50.694Z,-6.27
2022-11-29T00:58:18.301Z,-6.35
2022-11-29T01:00:45.426Z,-6.70
2022-11-29T01:03:12.378Z,-6.49
2022-11-29T01:05:39.330Z,-6.41
2022-11-29T01:08:06.296Z,-6.30
2022-11-29T01:10:33.742Z,-6.33
2022-11-29T01:13:00.771Z,-6.34
2022-11-29T01:15:28.465Z,-6.24
2022-11-29T01:17:55.555Z,-6.46
2022-11-29T01:20:22.350Z,-6.35
2022-11-29T01:22:49.467Z,-6.63
2022-11-29T01:25:16.682Z,-6.38
2022-11-29T01:27:43.565Z,-6.26
2022-11-29T01:30:11.604Z,-6.23
2022-11-29T01:32:39.142Z,-6.58
2022-11-29T01:35:06.873Z,-6.78
2022-11-29T01:37:33.830Z,-6.43
2022-11-29T01:40:00.660Z,-6.53
2022-11-29T01:42:27.680Z,-6.60
2022-11-29T01:45:07.282Z,-6.59
2022-11-29T01:47:39.087Z,-6.79
2022-11-29T01:50:08.181Z,-6.84
2022-11-29T01:52:35.445Z,-7.34
2022-11-29T01:55:05.711Z,-7.12
2022-11-29T01:57:35.319Z,-7.09
2022-11-29T02:00:07.374Z,-6.87
2022-11-29T02:02:44.472Z,-6.75
2022-11-29T02:05:14.828Z,-6.80
2022-11-29T02:07:45.960Z,-6.61
2022-11-29T02:10:14.295Z,-6.80
2022-11-29T02:12:56.232Z,-6.82
2022-11-29T02:16:09.829Z,-6.53
2022-11-29T02:19:18.650Z,-6.42
2022-11-29T02:22:03.065Z,-6.58
2022-11-29T02:25:17.303Z,-6.55
2022-11-29T02:27:46.982Z,-6.53
2022-11-29T02:30:53.739Z,-6.66
2022-11-29T02:33:33.964Z,-6.86
2022-11-29T02:36:32.280Z,-6.79
2022-11-29T02:39:20.216Z,-6.81
2022-11-29T02:42:20.602Z,-6.85
2022-11-29T02:45:06.258Z,-6.64
2022-11-29T02:47:54.668Z,-6.94
2022-11-29T02:50:49.652Z,-7.05
2022-11-29T02:53:38.117Z,-7.02
2022-11-29T02:56:11.345Z,-6.88
2022-11-29T02:58:51.601Z,-6.86
2022-11-29T03:01:30.342Z,-6.78
2022-11-29T03:04:15.861Z,-7.03
2022-11-29T03:06:53.419Z,-7.02
2022-11-29T03:09:32.352Z,-7.18
2022-11-29T03:12:26.788Z,-7.01
2022-11-29T03:15:13.042Z,-7.04
2022-11-29T03:17:45.931Z,-7.05
2022-11-29T03:20:50.328Z,-6.98
2022-11-29T03:23:35.698Z,-7.30
2022-11-29T03:26:07.622Z,-7.21
2022-11-29T03:29:03.089Z,-7.07
2022-11-29T03:32:00.346Z,-7.23
2022-11-29T03:34:36.562Z,-6.98
2022-11-29T03:37:13.526Z,-7.00
2022-11-29T03:39:49.589Z,-7.06
2022-11-29T03:42:32.956Z,-6.99
2022-11-29T03:45:06.802Z,-7.15
2022-11-29T03:48:00.143Z,-7.02
2022-11-29T03:50:35.152Z,-7.18
2022-11-29T03:53:34.193Z,-7.01
2022-11-29T03:56:03.273Z,-7.00
2022-11-29T03:59:00.393Z,-7.08
2022-11-29T04:02:04.626Z,-7.22
2022-11-29T04:04:40.492Z,-7.05
2022-11-29T04:07:20.005Z,-6.96
2022-11-29T04:10:28.056Z,-7.04
2022-11-29T04:13:04.037Z,-7.22
2022-11-29T04:15:53.254Z,-7.11
2022-11-29T04:18:57.251Z,-7.00
2022-11-29T04:21:47.282Z,-7.25
2022-11-29T04:24:36.305Z,-7.24
2022-11-29T04:27:29.082Z,-7.29
2022-11-29T04:30:11.169Z,-7.12
2022-11-29T04:33:33.551Z,-7.13
2022-11-29T04:36:50.543Z,-7.16
2022-11-29T04:40:09.354Z,-7.17
2022-11-29T04:43:03.960Z,-7.06
2022-11-29T04:45:36.825Z,-7.15
2022-11-29T04:48:25.066Z,-7.08
2022-11-29T04:51:10.617Z,-6.89
2022-11-29T04:54:08.730Z,-7.31
2022-11-29T04:56:52.839Z,-7.60
2022-11-29T04:59:54.893Z,-7.33
2022-11-29T05:02:33.510Z,-7.30
2022-11-29T05:05:38.021Z,-7.30
2022-11-29T05:08:32.834Z,-7.42
2022-11-29T05:11:26.518Z,-7.54
2022-11-29T05:14:32.883Z,-7.31
2022-11-29T05:17:47.104Z,-7.36
2022-11-29T05:20:35.520Z,-7.20
2022-11-29T05:23:21.320Z,-6.92
2022-11-29T05:25:51.330Z,-7.08
2022-11-29T05:28:32.399Z,-7.21
2022-11-29T05:31:29.746Z,-7.18
2022-11-29T05:34:21.683Z,-7.03
2022-11-29T05:36:51.701Z,-7.22
2022-11-29T05:39:29.742Z,-7.23
2022-11-29T05:42:08.726Z,-6.82
2022-11-29T05:44:47.895Z,-7.20
2022-11-29T05:47:35.316Z,-7.01
2022-11-29T05:50:28.485Z,-7.07
2022-11-29T05:53:21.209Z,-6.92
2022-11-29T05:56:07.859Z,-6.71
2022-11-29T05:58:43.575Z,-6.66
2022-11-29T06:01:24.804Z,-6.87
2022-11-29T06:04:17.871Z,-6.62
2022-11-29T06:07:04.274Z,-6.82
2022-11-29T06:09:43.384Z,-6.62
2022-11-29T06:12:20.763Z,-6.57
2022-11-29T06:14:53.396Z,-6.60
2022-11-29T06:17:41.893Z,-6.37
2022-11-29T06:20:43.636Z,-6.58
2022-11-29T06:23:31.498Z,-6.47
2022-11-29T06:26:36.892Z,-6.38
2022-11-29T06:29:27.915Z,-6.25
2022-11-29T06:32:31.031Z,-6.01
2022-11-29T06:35:11.732Z,-6.03
2022-11-29T06:37:51.827Z,-5.91
2022-11-29T06:40:18.892Z,-5.83
2022-11-29T06:42:45.719Z,-5.98
2022-11-29T06:45:14.445Z,-5.77
2022-11-29T06:47:50.434Z,-5.46
2022-11-29T06:50:56.218Z,-5.26
2022-11-29T06:53:55.883Z,-5.28
2022-11-29T06:56:40.924Z,-5.24
2022-11-29T06:59:32.803Z,-4.87
2022-11-29T07:02:52.316Z,-5.12
2022-11-29T07:05:31.031Z,-5.03
2022-11-29T07:08:03.232Z,-5.18
2022-11-29T07:10:33.446Z,-4.90
2022-11-29T07:13:00.623Z,-4.69
2022-11-29T07:15:27.876Z,-4.80
2022-11-29T07:18:18.019Z,-4.59
2022-11-29T07:21:07.782Z,-4.66
2022-11-29T07:23:49.952Z,-4.17
2022-11-29T07:26:43.264Z,-4.20
2022-11-29T07:29:51.160Z,-4.12
2022-11-29T07:32:39.077Z,-3.93
2022-11-29T07:35:33.821Z,-4.06
2022-11-29T07:38:25.334Z,-4.01
2022-11-29T07:41:06.096Z,-3.66
2022-11-29T07:43:55.063Z,-3.63
2022-11-29T07:46:22.091Z,-3.41
2022-11-29T07:48:49.008Z,-3.32
2022-11-29T07:51:16.016Z,-3.42
2022-11-29T07:53:44.225Z,-3.48
2022-11-29T07:56:11.587Z,-3.40
2022-11-29T07:58:39.034Z,-2.96
2022-11-29T08:01:06.451Z,-2.66
2022-11-29T08:03:33.403Z,-2.54
2022-11-29T08:06:00.369Z,-2.49
2022-11-29T08:08:27.394Z,-2.10
2022-11-29T08:10:54.368Z,-2.56
2022-11-29T08:13:21.812Z,-2.43
2022-11-29T08:15:49.365Z,-2.08
2022-11-29T08:18:16.648Z,-2.30
2022-11-29T08:20:43.767Z,-2.30
2022-11-29T08:23:14.038Z,-2.14
2022-11-29T08:25:41.524Z,-2.16
2022-11-29T08:28:09.053Z,-2.28
2022-11-29T08:30:35.993Z,-2.41
2022-11-29T08:33:03.421Z,-1.85
2022-11-29T08:35:30.706Z,-1.81
2022-11-29T08:37:57.552Z,-1.47
2022-11-29T08:40:24.820Z,-1.59
2022-11-29T08:42:51.675Z,-1.51
2022-11-29T08:45:18.689Z,-1.34
2022-11-29T08:47:45.531Z,-1.43
2022-11-29T08:50:17.940Z,-1.63
2022-11-29T08:52:47.378Z,-1.43
2022-11-29T08:55:14.295Z,-1.19
2022-11-29T08:57:41.510Z,-1.20
2022-11-29T09:00:09.299Z,-1.04
2022-11-29T09:02:37.246Z,-1.07
2022-11-29T09:05:05.971Z,-0.70
2022-11-29T09:07:32.994Z,-1.15
2022-11-29T09:09:59.885Z,-1.03
2022-11-29T09:12:26.896Z,-1.00
2022-11-29T09:14:53.927Z,-0.75
2022-11-29T09:17:20.772Z,-0.74
2022-11-29T09:19:47.604Z,-1.04
2022-11-29T09:22:14.542Z,-1.19
2022-11-29T09:24:41.426Z,-0.88
2022-11-29T09:27:08.327Z,-1.34
2022-11-29T09:29:35.256Z,-0.71
2022-11-29T09:32:02.220Z,-0.87
2022-11-29T09:34:29.127Z,-0.51
2022-11-29T09:36:56.269Z,-0.14
2022-11-29T09:39:24.234Z,-0.22
2022-11-29T09:42:31.365Z,-0.19
2022-11-29T09:45:17.267Z,-0.51
2022-11-29T09:48:23.762Z,-0.00
2022-11-29T09:51:09.769Z,-0.27
2022-11-29T09:53:46.830Z,-0.34
2022-11-29T09:56:23.884Z,-0.53
2022-11-29T09:58:59.000Z,-0.53
2022-11-29T10:01:30.044Z,-1.02
2022-11-29T10:04:02.817Z,-1.44
2022-11-29T10:06:36.441Z,-0.92
2022-11-29T10:09:09.194Z,-0.54
2022-11-29T10:12:03.282Z,-0.96
2022-11-29T10:15:02.844Z,-1.04
2022-11-29T10:17:48.694Z,-0.58
2022-11-29T10:20:20.485Z,-0.68
2022-11-29T10:22:59.376Z,-0.68
2022-11-29T10:25:34.694Z,-0.78
2022-11-29T10:28:03.569Z,-0.87
2022-11-29T10:30:35.377Z,-0.66
2022-11-29T10:33:02.429Z,-0.91
2022-11-29T10:35:29.290Z,-0.99
2022-11-29T10:38:29.686Z,-1.08
2022-11-29T10:40:51.175Z,-0.66
2022-11-29T10:43:18.155Z,-0.54
2022-11-29T10:45:54.977Z,-0.54
2022-11-29T10:48:33.198Z,-0.76
2022-11-29T10:51:01.643Z,-0.60
2022-11-29T10:53:36.031Z,-0.78
2022-11-29T10:56:27.755Z,-0.42
2022-11-29T10:58:57.800Z,-0.41
2022-11-29T11:01:25.684Z,-0.08
2022-11-29T11:03:55.500Z,-0.76
2022-11-29T11:06:55.929Z,-0.32
2022-11-29T11:09:31.041Z,-0.09
2022-11-29T11:12:00.442Z,-0.40
2022-11-29T11:14:31.167Z,-0.50
2022-11-29T11:17:28.595Z,-0.32
2022-11-29T11:20:21.863Z,-0.39
2022-11-29T11:23:04.264Z,-0.51
2022-11-29T11:25:38.721Z,-0.69
2022-11-29T11:28:23.011Z,-0.60
2022-11-29T11:30:57.328Z,-0.26
2022-11-29T11:33:30.457Z,-0.15
2022-11-29T11:36:26.951Z,-0.13
2022-11-29T11:39:10.814Z,-0.13
2022-11-29T11:41:45.210Z,0.06
2022-11-29T11:44:48.106Z,-0.08
2022-11-29T11:47:22.047Z,0.02
2022-11-29T11:50:04.270Z,-0.20
2022-11-29T11:52:40.132Z,-0.19
2022-11-29T11:55:34.311Z,-0.64
2022-11-29T11:58:09.388Z,-0.67
2022-11-29T12:01:07.879Z,-0.74
2022-11-29T12:03:50.140Z,-0.48
2022-11-29T12:06:42.024Z,-0.42
2022-11-29T12:09:08.859Z,-0.69
2022-11-29T12:11:51.935Z,-0.91
2022-11-29T12:14:29.130Z,-0.76
2022-11-29T12:17:15.432Z,-0.88
2022-11-29T12:20:08.796Z,-1.00
2022-11-29T12:22:50.931Z,-1.08
2022-11-29T12:25:27.166Z,-1.07
2022-11-29T12:27:54.276Z,-1.36
2022-11-29T12:30:21.286Z,-1.15
2022-11-29T12:32:57.124Z,-1.53
2022-11-29T12:35:31.600Z,-1.60
2022-11-29T12:38:06.942Z,-1.97
2022-11-29T12:41:11.682Z,-1.89
2022-11-29T12:44:10.750Z,-1.83
2022-11-29T12:46:37.884Z,-1.98
2022-11-29T12:49:23.396Z,-2.02
2022-11-29T12:52:09.299Z,-2.05
2022-11-29T12:54:48.236Z,-2.45
2022-11-29T12:57:23.701Z,-2.40
2022-11-29T13:00:03.661Z,-2.55
2022-11-29T13:02:42.374Z,-2.44
2022-11-29T13:05:15.356Z,-2.38
2022-11-29T13:08:11.199Z,-2.35
2022-11-29T13:11:05.275Z,-2.55
2022-11-29T13:13:38.817Z,-2.30
2022-11-29T13:16:20.516Z,-2.78
2022-11-29T13:19:13.704Z,-2.73
2022-11-29T13:21:53.244Z,-2.69
2022-11-29T13:24:31.597Z,-2.91
2022-11-29T13:27:01.855Z,-2.71
2022-11-29T13:29:29.255Z,-2.96
2022-11-29T13:31:57.306Z,-2.70
2022-11-29T13:34:24.142Z,-2.82
2022-11-29T13:37:15.940Z,-2.87
2022-11-29T13:39:52.401Z,-2.80
2022-11-29T13:42:58.044Z,-2.60
2022-11-29T13:46:05.928Z,-2.82
2022-11-29T13:48:58.796Z,-2.84
2022-11-29T13:51:33.070Z,-2.82
2022-11-29T13:54:24.396Z,-3.07
2022-11-29T13:57:05.434Z,-3.23
2022-11-29T13:59:35.112Z,-3.35
2022-11-29T14:02:03.889Z,-3.36
2022-11-29T14:04:38.584Z,-3.38
2022-11-29T14:07:09.931Z,-3.39
2022-11-29T14:09:50.941Z,-3.46
2022-11-29T14:12:22.173Z,-3.75
2022-11-29T14:14:54.009Z,-3.72
2022-11-29T14:17:45.833Z,-3.69
2022-11-29T14:20:24.807Z,-3.53
2022-11-29T14:23:04.260Z,-3.58
2022-11-29T14:25:53.311Z,-3.71
2022-11-29T14:28:23.598Z,-3.49
2022-11-29T14:31:01.844Z,-3.59
2022-11-29T14:33:38.268Z,-3.82
2022-11-29T14:36:25.683Z,-3.63
2022-11-29T14:39:22.522Z,-3.54
2022-11-29T14:41:55.423Z,-3.69
2022-11-29T14:44:26.466Z,-3.70
2022-11-29T14:47:06.869Z,-3.45
2022-11-29T14:49:43.373Z,-3.65
2022-11-29T14:52:17.167Z,-3.51
2022-11-29T14:55:04.995Z,-3.51
2022-11-29T14:58:01.142Z,-3.61
2022-11-29T15:00:47.788Z,-3.97
2022-11-29T15:03:40.997Z,-3.96
2022-11-29T15:06:25.278Z,-3.95
2022-11-29T15:09:22.736Z,-3.85
2022-11-29T15:12:21.741Z,-3.72
2022-11-29T15:14:51.735Z,-3.68
2022-11-29T15:17:24.631Z,-3.96
2022-11-29T15:20:19.493Z,-3.78
2022-11-29T15:22:51.494Z,-4.12
2022-11-29T15:25:24.499Z,-4.08
2022-11-29T15:27:53.563Z,-4.07
2022-11-29T15:30:41.634Z,-3.95
2022-11-29T15:33:29.349Z,-3.70
2022-11-29T15:36:04.557Z,-3.75
2022-11-29T15:38:42.341Z,-4.14
2022-11-29T15:41:26.408Z,-4.02
2022-11-29T15:43:57.215Z,-3.95
2022-11-29T15:46:26.535Z,-3.91
2022-11-29T15:48:53.958Z,-3.95
2022-11-29T15:51:30.244Z,-3.91
2022-11-29T15:54:12.237Z,-3.85
2022-11-29T15:56:49.199Z,-4.05
2022-11-29T15:59:39.428Z,-4.19
2022-11-29T16:02:28.337Z,-4.15
2022-11-29T16:04:59.901Z,-3.98
2022-11-29T16:07:29.259Z,-4.03
2022-11-29T16:10:04.750Z,-3.99
2022-11-29T16:12:32.528Z,-3.85
2022-11-29T16:15:01.030Z,-3.93
2022-11-29T16:17:34.054Z,-3.95
2022-11-29T16:20:22.313Z,-3.83
2022-11-29T16:23:03.268Z,-3.87
2022-11-29T16:25:36.138Z,-4.08
2022-11-29T16:28:05.342Z,-4.18
2022-11-29T16:30:32.767Z,-4.35
2022-11-29T16:33:01.423Z,-4.13
2022-11-29T16:35:31.012Z,-4.18
2022-11-29T16:37:58.013Z,-4.12
2022-11-29T16:40:29.220Z,-4.34
2022-11-29T16:43:22.393Z,-4.18
2022-11-29T16:46:35.134Z,-4.29
2022-11-29T16:49:23.993Z,-4.14
2022-11-29T16:51:52.366Z,-4.36
2022-11-29T16:54:27.837Z,-4.22
2022-11-29T16:56:56.901Z,-4.30
2022-11-29T16:59:28.301Z,-4.35
2022-11-29T17:01:57.102Z,-4.42
2022-11-29T17:04:25.213Z,-4.16
2022-11-29T17:06:54.302Z,-4.64
2022-11-29T17:09:30.796Z,-4.44
2022-11-29T17:11:59.599Z,-4.40
2022-11-29T17:14:26.716Z,-4.51
2022-11-29T17:16:54.684Z,-4.35
2022-11-29T17:19:25.354Z,-4.37
2022-11-29T17:21:52.672Z,-4.76
2022-11-29T17:24:22.141Z,-4.32
2022-11-29T17:26:50.528Z,-4.32
2022-11-29T17:29:18.884Z,-4.25
2022-11-29T17:31:47.530Z,-4.19
2022-11-29T17:34:14.586Z,-4.35
2022-11-29T17:36:41.622Z,-4.28
2022-11-29T17:39:08.737Z,-4.24
2022-11-29T17:41:35.904Z,-4.27
2022-11-29T17:44:04.184Z,-4.10
2022-11-29T17:46:33.666Z,-4.27
2022-11-29T17:49:02.288Z,-4.02
2022-11-29T17:54:17.159Z,-4.10
2022-11-29T17:56:43.993Z,-4.34
2022-11-29T17:59:11.009Z,-4.53
2022-11-29T18:01:37.996Z,-4.75
2022-11-29T18:04:06.459Z,-4.63
2022-11-29T18:06:40.354Z,-4.54
2022-11-29T18:09:09.342Z,-4.47
2022-11-29T18:11:47.394Z,-4.63
2022-11-29T18:14:18.728Z,-4.64
2022-11-29T18:16:45.855Z,-4.59
2022-11-29T18:19:21.373Z,-4.59
2022-11-29T18:21:49.624Z,-4.74
2022-11-29T18:24:16.947Z,-4.62
2022-11-29T18:26:44.364Z,-4.79
2022-11-29T18:29:11.774Z,-4.69
2022-11-29T18:31:41.736Z,-5.02
2022-11-29T18:34:10.264Z,-4.88
2022-11-29T18:36:40.607Z,-5.13
2022-11-29T18:39:09.950Z,-5.15
2022-11-29T18:41:37.971Z,-4.94
2022-11-29T18:44:11.197Z,-5.16
2022-11-29T18:46:39.654Z,-5.08
2022-11-29T18:49:08.440Z,-5.17
2022-11-29T18:51:36.739Z,-5.21
2022-11-29T18:54:04.865Z,-5.00
2022-11-29T18:56:34.926Z,-5.40
2022-11-29T18:59:10.586Z,-5.15
2022-11-29T19:01:39.629Z,-5.28
2022-11-29T19:04:07.780Z,-5.15
2022-11-29T19:06:39.741Z,-5.09
2022-11-29T19:09:15.133Z,-5.15
2022-11-29T19:11:42.461Z,-5.23
2022-11-29T19:14:11.970Z,-5.13
2022-11-29T19:16:44.281Z,-5.17
2022-11-29T19:19:11.984Z,-5.24
2022-11-29T19:21:39.825Z,-5.39
2022-11-29T19:24:08.793Z,-5.15
2022-11-29T19:26:35.725Z,-4.95
2022-11-29T19:29:02.861Z,-4.73
2022-11-29T19:31:29.764Z,-4.66
2022-11-29T19:33:57.684Z,-4.89
2022-11-29T19:36:27.502Z,-5.11
2022-11-29T19:38:55.159Z,-5.13
2022-11-29T19:41:31.560Z,-5.10
2022-11-29T19:44:00.894Z,-5.03
2022-11-29T19:46:42.869Z,-5.01
2022-11-29T19:49:10.970Z,-5.02
2022-11-29T19:51:38.485Z,-5.14
2022-11-29T19:54:08.031Z,-5.27
2022-11-29T19:56:34.886Z,-5.22
2022-11-29T19:59:02.017Z,-5.40
2022-11-29T20:01:39.231Z,-5.25
2022-11-29T20:04:07.664Z,-5.30
2022-11-29T20:06:35.186Z,-5.18
2022-11-29T20:09:02.115Z,-5.11
2022-11-29T20:11:29.008Z,-5.21
2022-11-29T20:13:58.590Z,-5.20
2022-11-29T20:16:26.794Z,-5.13
2022-11-29T20:18:54.072Z,-5.35
2022-11-29T20:21:25.663Z,-5.08
2022-11-29T20:24:00.587Z,-4.97
2022-11-29T20:26:29.411Z,-4.85
2022-11-29T20:28:57.267Z,-4.90
2022-11-29T20:31:24.520Z,-4.85
2022-11-29T20:33:53.355Z,-5.24
2022-11-29T20:36:47.510Z,-5.31
2022-11-29T20:39:36.105Z,-5.40
2022-11-29T20:42:38.614Z,-5.49
2022-11-29T20:45:08.116Z,-5.41
2022-11-29T20:47:45.245Z,-5.20
2022-11-29T20:50:24.209Z,-5.21
2022-11-29T20:53:35.656Z,-5.04
2022-11-29T20:56:03.589Z,-5.15
2022-11-29T20:58:30.510Z,-5.42
2022-11-29T21:00:58.542Z,-5.42
2022-11-29T21:03:26.807Z,-5.22
2022-11-29T21:05:55.793Z,-5.23
2022-11-29T21:08:25.670Z,-5.03
2022-11-29T21:10:53.342Z,-4.87
2022-11-29T21:13:22.559Z,-4.83
2022-11-29T21:15:49.997Z,-4.92
2022-11-29T21:18:27.994Z,-5.03
2022-11-29T21:21:23.916Z,-4.89
2022-11-29T21:24:18.565Z,-4.80
2022-11-29T21:26:51.215Z,-4.83
2022-11-29T21:29:21.243Z,-4.86
2022-11-29T21:31:51.275Z,-5.05
2022-11-29T21:34:19.375Z,-4.88
2022-11-29T21:36:54.136Z,-5.40
2022-11-29T21:39:24.856Z,-5.39
2022-11-29T21:41:51.704Z,-5.40
2022-11-29T21:44:18.570Z,-5.09
2022-11-29T21:46:45.507Z,-4.97
2022-11-29T21:49:12.364Z,-4.82
2022-11-29T21:51:39.234Z,-5.08
2022-11-29T21:54:06.107Z,-5.20
2022-11-29T21:56:33.028Z,-4.96
2022-11-29T21:58:59.851Z,-4.93
2022-11-29T22:01:26.725Z,-5.01
2022-11-29T22:03:54.426Z,-5.05
2022-11-29T22:06:22.000Z,-4.82
2022-11-29T22:08:48.975Z,-4.69
2022-11-29T22:11:18.500Z,-4.67
2022-11-29T22:13:45.403Z,-4.50
2022-11-29T22:16:12.355Z,-4.62
2022-11-29T22:18:39.220Z,-4.61
2022-11-29T22:21:07.196Z,-4.68
2022-11-29T22:23:34.540Z,-4.62
2022-11-29T22:26:03.512Z,-4.54
2022-11-29T22:28:30.373Z,-4.57
2022-11-29T22:31:15.231Z,-4.65
2022-11-29T22:33:42.262Z,-4.47
2022-11-29T22:36:11.564Z,-4.53
2022-11-29T22:38:39.874Z,-4.43
2022-11-29T22:41:09.537Z,-4.38
2022-11-29T22:43:37.530Z,-4.59
2022-11-29T22:46:10.552Z,-4.64
2022-11-29T22:48:39.265Z,-4.84
2022-11-29T22:51:11.928Z,-4.60
2022-11-29T22:53:40.750Z,-4.74
2022-11-29T22:56:10.296Z,-4.90
2022-11-29T22:58:37.794Z,-4.78
2022-11-29T23:01:11.293Z,-5.07
2022-11-29T23:03:42.073Z,-5.11
2022-11-29T23:06:10.580Z,-5.15
2022-11-29T23:08:38.618Z,-4.98
2022-11-29T23:11:07.402Z,-4.96
2022-11-29T23:13:36.630Z,-4.95
2022-11-29T23:16:05.600Z,-4.99
2022-11-29T23:18:32.885Z,-5.01
2022-11-29T23:21:04.815Z,-4.82
2022-11-29T23:23:31.737Z,-4.91
2022-11-29T23:25:59.238Z,-4.95
2022-11-29T23:28:26.773Z,-4.79
2022-11-29T23:30:53.870Z,-4.88
2022-11-29T23:33:22.699Z,-5.05
2022-11-29T23:35:50.782Z,-5.12
2022-11-29T23:38:18.142Z,-5.01
2022-11-29T23:40:45.090Z,-4.93
2022-11-29T23:43:13.765Z,-5.15
2022-11-29T23:45:40.822Z,-5.10
2022-11-29T23:48:08.025Z,-4.96
2022-11-29T23:50:34.926Z,-5.27
2022-11-29T23:53:01.791Z,-5.14
2022-11-29T23:55:28.981Z,-5.07
2022-11-29T23:57:55.927Z,-4.94
